Time;durP1;ratioP1;P1;durP2;ratioP2;P2;SDS_P1;SDS_P2;PMS_P1;PMS_P2;Temp;Humidity;BMP_temperature;BMP_pressure;BME280_temperature;BME280_humidity;BME280_pressure;Samples;Min_cycle;Max_cycle;Signal;HPM_P1;HPM_P2
2023/04/21 00:02:26;;;;;;;2.72;1.40;;;;;;;10.11;59.01;99804.16;6371643;28;20141;-75
2023/04/21 00:05:27;;;;;;;5.18;1.60;;;;;;;9.98;58.90;99789.28;6371803;28;20130;-75
2023/04/21 00:08:30;;;;;;;2.85;1.13;;;;;;;9.93;58.83;99788.75;6353616;28;20059;-75
2023/04/21 00:11:31;;;;;;;7.80;1.80;;;;;;;9.93;59.39;99786.16;6353596;28;20054;-72
2023/04/21 00:14:32;;;;;;;3.75;1.38;;;;;;;9.86;59.85;99790.91;6371496;28;20078;-71
2023/04/21 00:17:33;;;;;;;3.72;1.75;;;;;;;9.75;60.23;99792.50;6353366;28;20057;-71
2023/04/21 00:20:35;;;;;;;4.13;1.60;;;;;;;9.73;61.40;99789.97;6373381;27;20043;-72
2023/04/21 00:23:36;;;;;;;1.60;1.07;;;;;;;9.64;61.37;99790.56;6358210;27;20108;-72
2023/04/21 00:26:37;;;;;;;1.88;1.17;;;;;;;9.57;61.40;99784.88;6358151;27;20606;-72
2023/04/21 00:29:39;;;;;;;4.72;1.65;;;;;;;9.48;61.23;99786.28;6376360;27;20058;-71
2023/04/21 00:32:40;;;;;;;;;;;;;;;9.49;62.54;99787.09;6380545;27;20137;-72
2023/04/21 00:35:41;;;;;;;3.83;1.27;;;;;;;9.34;63.39;99783.66;6385391;27;19920;-72
2023/04/21 00:38:41;;;;;;;4.47;1.60;;;;;;;9.30;63.02;99786.53;6357930;27;20164;-72
2023/04/21 00:41:42;;;;;;;2.97;1.35;;;;;;;9.22;64.48;99787.00;6376029;27;20055;-72
2023/04/21 00:44:45;;;;;;;3.25;1.73;;;;;;;9.13;63.53;99793.59;6357776;27;20042;-71
2023/04/21 00:47:46;;;;;;;2.95;1.35;;;;;;;9.13;64.21;99790.16;6375769;27;20055;-72
2023/04/21 00:50:47;;;;;;;6.82;1.55;;;;;;;9.07;64.58;99786.97;6375800;27;20415;-72
2023/04/21 00:53:50;;;;;;;2.38;1.02;;;;;;;9.04;64.61;99781.13;6357452;27;20069;-72
2023/04/21 00:56:51;;;;;;;6.45;2.00;;;;;;;9.00;64.65;99784.84;6357583;27;20140;-72
2023/04/21 00:59:51;;;;;;;2.50;0.93;;;;;;;8.95;64.93;99784.25;6357482;27;20100;-72
2023/04/21 01:02:52;;;;;;;10.02;1.85;;;;;;;8.95;64.16;99776.47;6357031;27;20055;-71
2023/04/21 01:05:53;;;;;;;3.67;1.52;;;;;;;8.93;64.66;99776.53;6357202;27;20130;-71
2023/04/21 01:08:54;;;;;;;8.60;1.80;;;;;;;8.92;64.56;99777.47;6375315;27;20043;-71
2023/04/21 01:12:05;;;;;;;1.58;1.20;;;;;;;8.91;64.18;99774.97;6357806;27;20054;-73
2023/04/21 01:15:07;;;;;;;9.68;2.10;;;;;;;8.88;64.72;99778.59;6357035;27;20409;-72
2023/04/21 01:18:08;;;;;;;5.50;1.55;;;;;;;8.85;65.67;99777.00;6357062;27;20528;-71
2023/04/21 01:21:10;;;;;;;4.43;1.50;;;;;;;8.77;66.09;99765.34;6375270;27;20099;-74
2023/04/21 01:24:11;;;;;;;5.83;1.90;;;;;;;8.78;65.45;99773.06;6357353;27;20050;-74
2023/04/21 01:27:22;;;;;;;2.72;1.40;;;;;;;8.68;65.90;99767.56;6375386;27;20055;-75
2023/04/21 01:30:23;;;;;;;7.30;1.83;;;;;;;8.73;66.72;99776.84;6357122;27;20103;-75
2023/04/21 01:33:24;;;;;;;7.88;1.35;;;;;;;8.63;67.15;99771.38;6356751;27;20070;-72
2023/04/21 01:36:25;;;;;;;4.78;1.70;;;;;;;8.61;67.47;99760.22;6374972;27;20054;-75
2023/04/21 01:39:29;;;;;;;4.40;1.85;;;;;;;8.62;67.35;99772.28;6374860;27;20051;-72
2023/04/21 01:42:30;;;;;;;8.30;2.30;;;;;;;8.42;67.67;99771.66;6356719;27;20043;-72
2023/04/21 01:45:31;;;;;;;3.33;1.47;;;;;;;8.36;69.62;99769.38;6374848;27;20088;-74
2023/04/21 01:48:33;;;;;;;1.60;1.50;;;;;;;8.35;69.00;99769.47;6374826;27;20271;-75
2023/04/21 01:51:34;;;;;;;3.65;1.42;;;;;;;8.38;68.84;99772.75;6375014;27;20058;-75
2023/04/21 01:54:35;;;;;;;3.03;1.48;;;;;;;8.34;69.75;99768.63;6356408;27;20126;-75
2023/04/21 01:57:35;;;;;;;2.22;1.23;;;;;;;8.43;69.56;99772.50;6374972;27;20116;-75
2023/04/21 02:00:36;;;;;;;2.15;1.35;;;;;;;8.34;69.91;99768.63;6374711;27;20134;-74
2023/04/21 02:03:40;;;;;;;11.40;1.58;;;;;;;8.19;70.35;99769.47;6356252;27;20142;-74
2023/04/21 02:06:43;;;;;;;2.40;1.55;;;;;;;8.36;69.77;99771.13;6374193;27;20048;-71
2023/04/21 02:09:44;;;;;;;5.40;2.03;;;;;;;8.32;70.37;99777.41;6355913;27;20047;-71
2023/04/21 02:12:44;;;;;;;3.30;1.23;;;;;;;8.26;70.32;99771.66;6374023;27;20417;-75
2023/04/21 02:15:45;;;;;;;1.90;1.27;;;;;;;8.26;70.86;99778.63;6355829;27;20421;-72
2023/04/21 02:18:48;;;;;;;4.63;1.77;;;;;;;8.28;71.11;99777.59;6355383;27;20535;-71
2023/04/21 02:21:49;;;;;;;2.05;1.30;;;;;;;8.22;70.99;99777.13;6355384;27;20499;-72
2023/04/21 02:24:50;;;;;;;4.18;1.52;;;;;;;8.23;70.34;99764.00;6373467;27;20051;-72
2023/04/21 02:27:51;;;;;;;3.22;1.50;;;;;;;8.25;70.95;99767.38;6373686;27;20501;-72
2023/04/21 02:30:52;;;;;;;8.07;1.48;;;;;;;8.20;71.57;99768.56;6373671;27;20047;-72
2023/04/21 02:33:53;;;;;;;7.40;2.22;;;;;;;8.26;71.09;99766.47;6355142;27;20054;-72
2023/04/21 02:36:54;;;;;;;4.20;1.65;;;;;;;8.17;72.17;99773.91;6355285;27;20047;-72
2023/04/21 02:39:55;;;;;;;1.75;1.40;;;;;;;8.18;71.96;99765.22;6373598;27;20404;-72
2023/04/21 02:42:56;;;;;;;9.90;2.00;;;;;;;8.17;72.38;99771.31;6377373;27;20053;-71
2023/04/21 02:45:56;;;;;;;1.90;1.13;;;;;;;8.13;71.80;99769.81;6377904;27;20133;-72
2023/04/21 02:48:57;;;;;;;4.18;2.03;;;;;;;8.15;73.31;99780.97;6374708;27;20493;-72
2023/04/21 02:51:58;;;;;;;1.92;1.45;;;;;;;8.12;71.92;99774.19;6355608;27;20047;-71
2023/04/21 02:55:02;;;;;;;1.77;1.33;;;;;;;8.17;72.36;99779.13;6361363;27;20068;-72
2023/04/21 02:58:03;;;;;;;1.33;1.08;;;;;;;8.16;72.11;99778.28;6357530;27;20386;-72
2023/04/21 03:01:04;;;;;;;3.17;1.77;;;;;;;8.20;72.32;99778.97;6373034;27;20132;-72
2023/04/21 03:04:05;;;;;;;2.90;1.55;;;;;;;8.17;72.72;99779.94;6381464;27;20046;-71
2023/04/21 03:07:11;;;;;;;2.13;1.63;;;;;;;8.11;73.22;99779.44;6378445;27;20085;-72
2023/04/21 03:10:12;;;;;;;2.88;1.90;;;;;;;8.10;73.74;99776.03;6376582;27;20430;-72
2023/04/21 03:13:13;;;;;;;2.15;1.48;;;;;;;8.05;74.00;99772.81;6374564;27;20103;-71
2023/04/21 03:16:16;;;;;;;3.05;1.52;;;;;;;8.01;73.87;99777.38;6377155;27;20047;-71
2023/04/21 03:19:17;;;;;;;7.20;2.60;;;;;;;7.92;74.52;99774.44;6376121;27;20515;-72
2023/04/21 03:22:20;;;;;;;6.80;2.00;;;;;;;7.85;74.69;99785.16;6391699;27;20051;-71
2023/04/21 03:25:21;;;;;;;4.75;1.95;;;;;;;7.91;74.94;99781.41;6355648;27;20035;-71
2023/04/21 03:28:24;;;;;;;7.70;1.80;;;;;;;7.81;75.64;99788.84;6372260;27;20108;-71
2023/04/21 03:31:25;;;;;;;6.55;2.25;;;;;;;7.81;75.14;99783.66;6351768;27;20176;-71
2023/04/21 03:34:25;;;;;;;4.93;2.10;;;;;;;7.91;75.18;99788.31;6390341;27;20501;-74
2023/04/21 03:37:26;;;;;;;5.75;1.67;;;;;;;7.79;75.98;99780.28;6395659;27;20047;-75
2023/04/21 03:40:27;;;;;;;5.63;1.60;;;;;;;7.73;76.77;99788.41;6363205;27;20050;-75
2023/04/21 03:43:28;;;;;;;13.05;2.65;;;;;;;7.76;76.14;99784.81;6375135;27;20129;-75
2023/04/21 03:46:29;;;;;;;14.57;2.20;;;;;;;7.66;77.17;99797.47;6385206;27;20107;-75
2023/04/21 03:49:29;;;;;;;2.65;1.80;;;;;;;7.65;77.46;99798.38;6365681;27;20051;-74
2023/04/21 03:52:30;;;;;;;7.05;1.77;;;;;;;7.63;77.73;99803.63;6359801;27;20512;-75
2023/04/21 03:55:33;;;;;;;2.75;1.63;;;;;;;7.77;77.08;99804.69;6378740;27;20473;-75
2023/04/21 03:58:36;;;;;;;2.67;2.15;;;;;;;7.73;76.60;99798.81;6359885;27;20046;-75
2023/04/21 04:01:38;;;;;;;3.28;1.83;;;;;;;7.71;78.13;99805.00;6373202;27;20050;-74
2023/04/21 04:04:38;;;;;;;6.05;1.63;;;;;;;7.71;77.49;99813.63;6382609;27;20051;-75
2023/04/21 04:07:39;;;;;;;3.00;1.85;;;;;;;7.68;77.34;99811.22;6386507;27;20088;-75
2023/04/21 04:10:40;;;;;;;9.27;2.42;;;;;;;7.73;77.82;99806.59;6387806;27;20507;-75
2023/04/21 04:13:41;;;;;;;7.93;1.52;;;;;;;7.78;77.41;99820.19;6400638;27;20072;-75
2023/04/21 04:16:42;;;;;;;2.28;1.42;;;;;;;7.81;77.73;99814.81;6386602;27;20389;-75
2023/04/21 04:19:43;;;;;;;2.03;1.60;;;;;;;7.92;76.53;99816.81;6359377;27;20051;-75
2023/04/21 04:22:43;;;;;;;8.05;1.40;;;;;;;8.00;76.51;99813.81;6377466;27;20099;-75
2023/04/21 04:25:46;;;;;;;3.45;1.77;;;;;;;7.98;75.83;99823.47;6400669;27;20121;-75
2023/04/21 04:28:47;;;;;;;3.38;2.13;;;;;;;8.04;76.44;99823.13;6388592;27;20070;-74
2023/04/21 04:31:49;;;;;;;6.13;1.65;;;;;;;8.05;76.64;99817.88;6381875;27;20114;-74
2023/04/21 04:34:51;;;;;;;4.72;1.88;;;;;;;8.00;76.27;99819.03;6364144;27;20043;-75
2023/04/21 04:37:53;;;;;;;2.75;1.40;;;;;;;8.21;76.61;99825.63;6359348;27;20043;-75
2023/04/21 04:40:56;;;;;;;6.60;1.77;;;;;;;8.32;76.01;99832.00;6376993;27;20442;-75
2023/04/21 04:43:59;;;;;;;6.78;2.13;;;;;;;8.42;75.47;99822.81;6393489;27;20043;-75
2023/04/21 04:47:00;;;;;;;5.65;1.83;;;;;;;8.61;75.59;99833.03;6359438;27;20130;-75
2023/04/21 04:50:01;;;;;;;7.07;2.03;;;;;;;8.59;74.31;99827.09;6392937;27;20099;-75
2023/04/21 04:53:06;;;;;;;2.97;1.83;;;;;;;8.78;75.19;99834.69;6376074;27;20072;-75
2023/04/21 04:56:07;;;;;;;7.88;2.30;;;;;;;8.90;73.42;99839.19;6358222;27;20043;-76
2023/04/21 04:59:08;;;;;;;6.68;2.53;;;;;;;9.04;71.85;99838.41;6376568;27;20489;-75
2023/04/21 05:02:09;;;;;;;6.57;1.50;;;;;;;9.08;72.99;99830.31;6375960;27;20067;-76
2023/04/21 05:05:10;;;;;;;3.55;1.75;;;;;;;9.11;71.08;99833.66;6376165;27;20062;-76
2023/04/21 05:08:10;;;;;;;4.22;1.48;;;;;;;9.27;72.29;99840.47;6375921;27;20477;-75
2023/04/21 05:11:11;;;;;;;3.72;2.05;;;;;;;9.39;71.57;99833.72;6357929;27;20108;-75
2023/04/21 05:14:12;;;;;;;11.30;2.58;;;;;;;9.47;70.92;99834.09;6375954;27;20405;-75
2023/04/21 05:17:15;;;;;;;5.93;1.40;;;;;;;9.53;69.24;99832.88;6357639;27;20463;-75
2023/04/21 05:20:16;;;;;;;4.18;1.70;;;;;;;9.67;69.83;99825.06;6357950;27;20043;-75
2023/04/21 05:23:16;;;;;;;3.47;1.73;;;;;;;9.75;69.33;99836.78;6357327;27;20054;-75
2023/04/21 05:26:17;;;;;;;19.90;2.13;;;;;;;9.87;68.87;99831.66;6357386;27;20047;-76
2023/04/21 05:29:18;;;;;;;2.20;1.63;;;;;;;10.01;67.73;99827.38;6357424;27;20063;-75
2023/04/21 05:32:19;;;;;;;2.35;1.25;;;;;;;10.09;68.11;99833.78;6356820;27;20050;-72
2023/04/21 05:35:20;;;;;;;3.35;1.50;;;;;;;10.06;67.43;99828.75;6357259;27;20103;-72
2023/04/21 05:38:26;;;;;;;2.65;1.67;;;;;;;10.22;66.52;99833.84;6374851;27;20050;-76
2023/04/21 05:41:26;;;;;;;2.60;1.52;;;;;;;10.26;66.17;99827.50;6377469;27;20057;-75
2023/04/21 05:44:27;;;;;;;5.80;1.90;;;;;;;10.38;66.43;99830.31;6379981;27;20496;-75
2023/04/21 05:47:28;;;;;;;2.25;1.52;;;;;;;10.47;65.46;99827.09;6382555;27;20051;-72
2023/04/21 05:50:32;;;;;;;2.33;1.30;;;;;;;10.55;64.85;99818.78;6400777;27;20043;-72
2023/04/21 05:53:33;;;;;;;12.07;1.60;;;;;;;10.57;63.84;99814.31;6401200;27;20046;-75
2023/04/21 05:56:34;;;;;;;4.22;1.50;;;;;;;10.74;63.31;99829.69;6401176;27;20050;-75
2023/04/21 05:59:35;;;;;;;6.65;1.48;;;;;;;10.82;63.38;99823.97;6400780;27;20051;-73
2023/04/21 06:02:35;;;;;;;5.43;2.00;;;;;;;10.87;63.20;99825.34;6373076;27;20094;-72
2023/04/21 06:05:36;;;;;;;2.00;1.45;;;;;;;10.87;62.33;99827.09;6373180;27;20047;-72
2023/04/21 06:08:37;;;;;;;4.90;1.92;;;;;;;11.08;63.11;99822.25;6373782;27;20138;-75
2023/04/21 06:11:38;;;;;;;2.97;1.38;;;;;;;11.15;62.03;99825.28;6373966;27;20051;-75
2023/04/21 06:14:39;;;;;;;4.95;2.28;;;;;;;11.31;61.31;99820.72;6374449;27;20047;-72
2023/04/21 06:17:42;;;;;;;5.07;1.58;;;;;;;11.46;60.03;99822.25;6372772;27;20149;-76
2023/04/21 06:20:50;;;;;;;2.55;1.75;;;;;;;11.75;60.21;99829.06;6374673;27;20050;-75
2023/04/21 06:23:51;;;;;;;6.28;1.42;;;;;;;12.01;59.08;99830.72;6373477;27;20127;-73
2023/04/21 06:26:52;;;;;;;7.47;1.60;;;;;;;12.33;58.20;99827.56;6373871;27;20408;-73
2023/04/21 06:29:55;;;;;;;3.38;1.67;;;;;;;12.52;57.91;99829.72;6373600;27;20405;-72
2023/04/21 06:32:55;;;;;;;11.13;2.03;;;;;;;12.59;54.67;99824.84;6373733;27;20055;-72
2023/04/21 06:35:58;;;;;;;3.58;1.88;;;;;;;12.78;55.08;99826.97;6372386;27;20054;-72
2023/04/21 06:38:59;;;;;;;2.33;1.45;;;;;;;12.87;54.33;99826.28;6372198;27;20055;-72
2023/04/21 06:42:03;;;;;;;3.03;1.63;;;;;;;13.06;55.77;99839.66;6373305;27;20110;-72
2023/04/21 06:45:04;;;;;;;4.15;1.58;;;;;;;13.03;54.54;99829.44;6373260;27;20472;-72
2023/04/21 06:48:07;;;;;;;2.23;1.33;;;;;;;13.18;53.68;99835.31;6374056;27;20043;-73
2023/04/21 06:51:08;;;;;;;8.82;2.45;;;;;;;13.74;54.19;99831.94;6373192;27;20683;-72
2023/04/21 06:54:09;;;;;;;5.30;1.98;;;;;;;14.24;51.74;99828.91;6371610;27;20048;-73
2023/04/21 06:57:10;;;;;;;8.27;2.08;;;;;;;14.22;50.17;99828.19;6371844;27;20073;-73
2023/04/21 07:00:12;;;;;;;9.10;1.98;;;;;;;14.32;48.96;99832.59;6371973;27;20050;-72
2023/04/21 07:03:15;;;;;;;22.42;2.22;;;;;;;14.34;48.90;99827.22;6371362;27;20062;-74
2023/04/21 07:06:17;;;;;;;8.02;1.75;;;;;;;14.51;49.95;99826.69;6372671;27;20058;-72
2023/04/21 07:09:21;;;;;;;9.90;1.55;;;;;;;14.81;48.20;99824.34;6371578;27;20493;-72
2023/04/21 07:12:22;;;;;;;4.85;1.70;;;;;;;15.13;47.10;99813.78;6371668;27;20043;-72
2023/04/21 07:15:23;;;;;;;3.05;1.65;;;;;;;15.37;46.53;99818.75;6372760;27;20047;-71
2023/04/21 07:18:24;;;;;;;4.38;1.52;;;;;;;15.73;46.57;99824.53;6372530;27;20138;-71
2023/04/21 07:21:25;;;;;;;4.75;1.80;;;;;;;15.95;45.82;99831.38;6371013;27;20051;-72
2023/04/21 07:24:26;;;;;;;12.10;2.10;;;;;;;15.84;43.46;99816.53;6371080;27;20405;-71
2023/04/21 07:27:29;;;;;;;8.32;1.67;;;;;;;16.03;43.61;99821.00;6371139;27;20478;-72
2023/04/21 07:30:30;;;;;;;4.03;1.83;;;;;;;15.86;42.94;99819.84;6372210;27;20055;-71
2023/04/21 07:33:31;;;;;;;4.75;1.77;;;;;;;16.09;42.61;99817.84;6369235;27;20054;-71
2023/04/21 07:36:32;;;;;;;4.32;1.83;;;;;;;16.16;42.44;99817.28;6347039;28;20130;-71
2023/04/21 07:39:38;;;;;;;2.10;1.83;;;;;;;16.36;43.01;99816.38;6346801;28;20047;-71
2023/04/21 07:42:39;;;;;;;2.42;1.40;;;;;;;16.19;42.32;99814.41;6346391;28;20100;-71
2023/04/21 07:45:40;;;;;;;8.77;1.88;;;;;;;16.44;41.54;99811.25;6345220;28;20088;-71
2023/04/21 07:48:41;;;;;;;7.47;1.83;;;;;;;16.62;42.21;99816.66;6346383;28;20051;-71
2023/04/21 07:51:41;;;;;;;5.22;1.98;;;;;;;16.61;42.13;99807.09;6346441;28;20059;-71
2023/04/21 07:54:42;;;;;;;4.18;1.83;;;;;;;17.01;43.13;99811.41;6345033;28;20055;-72
2023/04/21 07:57:43;;;;;;;3.65;1.88;;;;;;;17.35;42.41;99810.09;6345402;28;20484;-71
2023/04/21 08:00:46;;;;;;;3.25;1.77;;;;;;;17.01;40.18;99811.41;6345070;28;20043;-71
2023/04/21 08:03:47;;;;;;;8.13;1.92;;;;;;;17.21;41.44;99804.28;6363092;28;20051;-71
2023/04/21 08:06:47;;;;;;;5.18;1.75;;;;;;;17.45;40.86;99806.44;6353521;28;20058;-71
2023/04/21 08:09:48;;;;;;;3.53;2.10;;;;;;;17.38;40.33;99812.44;6371561;28;20413;-71
2023/04/21 08:12:52;;;;;;;5.78;1.85;;;;;;;17.78;40.89;99806.06;6371652;28;20080;-71
2023/04/21 08:15:53;;;;;;;3.85;2.05;;;;;;;18.11;41.22;99804.66;6371627;28;20070;-73
2023/04/21 08:18:54;;;;;;;5.97;2.13;;;;;;;18.33;41.38;99801.59;6353331;28;20055;-72
2023/04/21 08:21:56;;;;;;;2.25;1.60;;;;;;;18.18;38.93;99803.09;6371421;28;20055;-72
2023/04/21 08:24:57;;;;;;;4.68;1.75;;;;;;;18.58;40.27;99803.63;6353157;28;20048;-72
2023/04/21 08:27:58;;;;;;;3.92;1.90;;;;;;;18.44;38.21;99808.47;6371473;28;20050;-73
2023/04/21 08:30:59;;;;;;;5.68;2.40;;;;;;;18.26;38.01;99811.09;6371269;28;20054;-72
2023/04/21 08:34:00;;;;;;;5.55;2.10;;;;;;;18.46;38.92;99808.31;6371362;28;20051;-73
2023/04/21 08:37:01;;;;;;;5.28;2.22;;;;;;;18.62;38.21;99800.53;6371244;28;20054;-73
2023/04/21 08:40:06;;;;;;;1.90;1.60;;;;;;;18.89;38.70;99799.63;6352987;27;20047;-73
2023/04/21 08:43:07;;;;;;;4.82;2.00;;;;;;;18.69;38.80;99808.69;6375252;27;20492;-73
2023/04/21 08:46:08;;;;;;;12.57;2.40;;;;;;;18.56;39.41;99795.88;6357753;27;20051;-72
2023/04/21 08:49:11;;;;;;;2.03;1.80;;;;;;;18.85;39.96;99795.63;6376036;27;20050;-73
2023/04/21 08:52:13;;;;;;;5.40;2.53;;;;;;;18.88;37.90;99798.00;6357598;27;20047;-73
2023/04/21 08:55:14;;;;;;;5.38;2.47;;;;;;;18.89;37.95;99789.06;6357462;27;20075;-73
2023/04/21 08:58:15;;;;;;;2.63;1.73;;;;;;;18.91;38.00;99786.28;6357714;27;20047;-73
2023/04/21 09:01:16;;;;;;;7.53;2.13;;;;;;;19.23;37.80;99793.59;6357258;27;20051;-73
2023/04/21 09:04:17;;;;;;;6.45;2.15;;;;;;;19.41;38.17;99784.75;6375376;27;20058;-73
2023/04/21 09:07:30;;;;;;;9.77;2.40;;;;;;;19.66;37.64;99791.84;6375183;27;20047;-73
2023/04/21 09:10:31;;;;;;;4.10;1.75;;;;;;;19.43;38.88;99794.19;6357010;27;20120;-73
2023/04/21 09:13:36;;;;;;;4.60;1.97;;;;;;;19.55;36.36;99784.19;6357044;27;20474;-73
2023/04/21 09:16:39;;;;;;;3.58;2.40;;;;;;;19.64;36.77;99777.09;6356817;27;20089;-73
2023/04/21 09:19:42;;;;;;;3.55;2.20;;;;;;;19.82;36.86;99775.22;6375040;27;20047;-73
2023/04/21 09:22:43;;;;;;;4.47;2.30;;;;;;;20.07;36.18;99773.47;6375031;27;20054;-73
2023/04/21 09:25:44;;;;;;;4.55;2.40;;;;;;;20.09;37.25;99771.47;6356763;27;20103;-73
2023/04/21 09:28:47;;;;;;;6.80;2.07;;;;;;;20.05;34.80;99764.03;6356688;27;20051;-73
2023/04/21 09:31:51;;;;;;;3.65;2.00;;;;;;;20.50;35.69;99763.59;6375120;27;20051;-73
2023/04/21 09:34:58;;;;;;;3.80;2.13;;;;;;;20.56;36.41;99756.00;6356423;27;20402;-73
2023/04/21 09:38:01;;;;;;;7.28;2.28;;;;;;;20.43;35.33;99752.00;6356439;27;20047;-72
2023/04/21 09:41:02;;;;;;;3.53;2.10;;;;;;;20.81;33.24;99752.34;6356651;27;20130;-73
2023/04/21 09:44:05;;;;;;;2.73;1.70;;;;;;;21.08;34.44;99747.69;6356657;27;20087;-73
2023/04/21 09:47:10;;;;;;;5.30;2.08;;;;;;;21.50;34.50;99752.75;6376537;27;20042;-73
2023/04/21 09:50:14;;;;;;;6.18;2.42;;;;;;;21.30;33.49;99749.63;6398317;27;20078;-73
2023/04/21 09:53:20;;;;;;;4.15;2.20;;;;;;;20.79;33.20;99742.94;6399107;27;20082;-73
2023/04/21 09:56:24;;;;;;;5.53;2.28;;;;;;;20.37;33.32;99735.97;6400330;27;20047;-73
2023/04/21 09:59:29;;;;;;;7.43;2.67;;;;;;;20.67;32.68;99735.31;6400256;27;20046;-73
2023/04/21 10:02:33;;;;;;;3.70;2.33;;;;;;;20.90;32.27;99727.50;6399937;27;20119;-73
2023/04/21 10:05:35;;;;;;;4.20;2.45;;;;;;;20.34;32.34;99734.44;6400036;27;20046;-73
2023/04/21 10:08:36;;;;;;;5.53;2.20;;;;;;;20.14;32.73;99741.88;6381405;27;20416;-72
2023/04/21 10:11:40;;;;;;;4.38;2.13;;;;;;;20.69;31.95;99737.78;6381586;27;20091;-72
2023/04/21 10:14:40;;;;;;;6.53;2.10;;;;;;;20.53;31.94;99731.47;6399562;27;20095;-73
2023/04/21 10:17:46;;;;;;;2.90;2.10;;;;;;;20.30;32.11;99731.31;6399683;27;20050;-72
2023/04/21 10:20:53;;;;;;;4.10;2.38;;;;;;;21.09;31.37;99734.25;6399135;27;20058;-72
2023/04/21 10:23:56;;;;;;;4.72;2.60;;;;;;;21.10;31.39;99711.22;6396313;27;20049;-73
2023/04/21 10:27:00;;;;;;;3.53;1.98;;;;;;;20.75;31.27;99731.00;6399355;27;20115;-73
2023/04/21 10:30:23;;;;;;;4.63;2.40;;;;;;;21.06;29.94;99736.41;6399249;27;20047;-73
2023/04/21 10:33:23;;;;;;;3.38;2.30;;;;;;;21.12;30.22;99730.44;6380535;27;20046;-73
2023/04/21 10:36:25;;;;;;;3.93;2.60;;;;;;;21.44;28.67;99721.59;6380762;27;20054;-73
2023/04/21 10:39:37;;;;;;;3.28;2.42;;;;;;;21.77;28.62;99728.56;6380796;27;20141;-73
2023/04/21 10:42:37;;;;;;;3.33;1.83;;;;;;;21.69;27.53;99721.47;6399126;27;20042;-74
2023/04/21 10:45:38;;;;;;;5.67;2.57;;;;;;;21.27;26.81;99720.78;6380099;27;20045;-74
2023/04/21 10:48:39;;;;;;;4.47;1.93;;;;;;;20.41;28.60;99719.56;6380325;27;20053;-74
2023/04/21 10:55:11;;;;;;;13.27;1.98;;;;;;;21.41;28.47;99721.88;6398443;27;20541;-71
2023/04/21 10:58:15;;;;;;;2.78;2.10;;;;;;;21.61;28.34;99724.16;6380149;27;20053;-70
2023/04/21 11:01:16;;;;;;;2.72;1.92;;;;;;;21.60;27.03;99717.19;6380119;27;20054;-72
2023/04/21 11:04:19;;;;;;;4.47;2.03;;;;;;;21.63;28.22;99719.50;6379167;27;20051;-72
2023/04/21 11:07:22;;;;;;;3.45;1.88;;;;;;;21.81;28.92;99716.59;6398638;27;20052;-72
2023/04/21 11:10:23;;;;;;;3.22;2.22;;;;;;;22.17;27.69;99710.72;6379871;27;20155;-73
2023/04/21 11:13:26;;;;;;;5.07;2.13;;;;;;;21.91;28.53;99712.72;6398073;27;20164;-73
2023/04/21 11:16:27;;;;;;;2.63;1.77;;;;;;;22.28;27.52;99713.81;6379829;27;20043;-74
2023/04/21 11:19:31;;;;;;;3.17;2.15;;;;;;;22.96;26.25;99702.41;6379619;27;20088;-74
2023/04/21 11:22:36;;;;;;;3.15;1.92;;;;;;;22.93;29.73;99704.41;6379455;27;20478;-73
2023/04/21 11:25:36;;;;;;;2.78;2.10;;;;;;;22.06;27.65;99711.97;6379340;27;20051;-73
2023/04/21 11:28:40;;;;;;;7.85;2.65;;;;;;;22.06;28.54;99710.13;6379704;27;20267;-73
2023/04/21 11:31:44;;;;;;;5.78;2.40;;;;;;;22.35;28.53;99710.47;6397710;27;20043;-73
2023/04/21 11:34:45;;;;;;;3.60;2.28;;;;;;;22.66;28.38;99702.38;6379353;27;20046;-73
2023/04/21 11:37:50;;;;;;;2.60;1.77;;;;;;;22.70;28.99;99704.47;6397685;27;20042;-73
2023/04/21 11:40:53;;;;;;;4.72;2.28;;;;;;;21.85;28.53;99700.13;6397887;27;20103;-71
2023/04/21 11:43:57;;;;;;;3.20;2.17;;;;;;;21.09;30.25;99704.25;6379144;27;20050;-71
2023/04/21 11:46:57;;;;;;;3.13;2.10;;;;;;;20.78;29.25;99698.88;6379233;27;20056;-72
2023/04/21 11:50:00;;;;;;;4.67;2.30;;;;;;;21.11;29.47;99711.03;6397639;27;20042;-75
2023/04/21 11:53:01;;;;;;;3.55;2.10;;;;;;;21.64;30.77;99690.13;6379249;27;20046;-75
2023/04/21 11:56:02;;;;;;;3.30;2.22;;;;;;;21.97;28.07;99695.25;6397635;27;20047;-72
2023/04/21 11:59:11;;;;;;;3.80;2.10;;;;;;;22.41;29.26;99685.81;6379398;27;20059;-76
2023/04/21 12:02:20;;;;;;;4.55;2.38;;;;;;;21.58;29.34;99693.50;6397245;27;20061;-72
2023/04/21 12:05:22;;;;;;;4.40;2.17;;;;;;;21.92;28.30;99695.75;6378749;27;20066;-75
2023/04/21 12:08:23;;;;;;;3.72;2.15;;;;;;;22.06;27.13;99685.41;6397392;27;20460;-75
2023/04/21 12:11:28;;;;;;;5.30;1.87;;;;;;;21.38;28.92;99689.56;6397336;27;20046;-72
2023/04/21 12:14:32;;;;;;;3.45;1.95;;;;;;;21.53;29.58;99680.72;6397269;27;20099;-72
2023/04/21 12:17:46;;;;;;;4.35;2.15;;;;;;;21.55;27.19;99669.94;6400503;27;20046;-72
2023/04/21 12:20:50;;;;;;;5.47;1.70;;;;;;;21.42;28.07;99681.13;6384112;27;20050;-75
2023/04/21 12:23:53;;;;;;;2.95;1.73;;;;;;;20.89;30.08;99678.09;6402131;27;20046;-72
2023/04/21 12:26:54;;;;;;;3.85;1.95;;;;;;;20.37;30.38;99675.03;6402222;27;20055;-72
2023/04/21 12:29:54;;;;;;;5.23;1.80;;;;;;;20.72;31.58;99679.16;6383636;27;20058;-74
2023/04/21 12:32:55;;;;;;;3.23;1.90;;;;;;;21.00;30.11;99681.41;6383817;27;20095;-75
2023/04/21 12:35:56;;;;;;;2.20;1.57;;;;;;;21.04;29.61;99669.44;6401936;27;20047;-75
2023/04/21 12:38:57;;;;;;;4.40;1.93;;;;;;;20.66;29.85;99666.56;6383673;27;20453;-72
2023/04/21 12:41:58;;;;;;;4.77;2.10;;;;;;;20.46;30.63;99661.56;6383502;27;20133;-74
2023/04/21 12:45:00;;;;;;;2.38;1.70;;;;;;;20.50;29.88;99664.72;6401584;27;20091;-72
2023/04/21 12:48:02;;;;;;;4.03;1.77;;;;;;;20.60;29.03;99667.25;6401497;27;20385;-72
2023/04/21 12:51:03;;;;;;;3.20;1.77;;;;;;;20.70;29.36;99670.53;6401594;27;20173;-72
2023/04/21 12:54:06;;;;;;;2.23;1.87;;;;;;;21.07;29.01;99674.44;6402072;27;20128;-73
2023/04/21 12:57:07;;;;;;;5.25;1.90;;;;;;;21.72;30.10;99660.03;6383046;27;20050;-72
2023/04/21 13:00:11;;;;;;;4.03;1.90;;;;;;;21.66;28.25;99656.28;6383052;27;20404;-72
2023/04/21 13:03:12;;;;;;;2.17;1.67;;;;;;;21.09;28.74;99656.53;6401295;27;20058;-72
2023/04/21 13:06:13;;;;;;;2.93;2.27;;;;;;;20.81;28.54;99656.09;6401382;27;20085;-72
2023/04/21 13:09:16;;;;;;;2.63;1.80;;;;;;;20.57;28.89;99655.13;6401266;27;20069;-71
2023/04/21 13:12:19;;;;;;;2.53;1.65;;;;;;;20.41;30.68;99660.44;6401143;27;20057;-72
2023/04/21 13:15:20;;;;;;;3.17;1.90;;;;;;;20.48;29.65;99650.81;6401139;27;20053;-71
2023/04/21 13:18:21;;;;;;;7.23;2.50;;;;;;;20.59;29.92;99647.88;6400904;27;20043;-72
2023/04/21 13:21:25;;;;;;;3.07;2.10;;;;;;;20.73;28.84;99664.88;6382625;27;20472;-72
2023/04/21 13:24:26;;;;;;;4.05;1.52;;;;;;;21.11;28.50;99650.03;6382329;27;20074;-71
2023/04/21 13:27:26;;;;;;;6.80;2.03;;;;;;;21.00;28.38;99641.63;6400235;27;20074;-72
2023/04/21 13:30:32;;;;;;;6.47;2.03;;;;;;;21.70;26.57;99651.41;6396957;27;20154;-72
2023/04/21 13:33:34;;;;;;;2.67;1.88;;;;;;;22.22;26.27;99650.72;6398197;27;20055;-72
2023/04/21 13:36:34;;;;;;;3.03;1.70;;;;;;;22.14;28.18;99646.31;6400742;27;20047;-72
2023/04/21 13:39:38;;;;;;;2.60;1.70;;;;;;;22.04;28.20;99634.28;6401236;27;20058;-72
2023/04/21 13:42:39;;;;;;;3.53;1.92;;;;;;;22.04;27.60;99635.09;6381905;27;20507;-72
2023/04/21 13:45:40;;;;;;;2.47;1.70;;;;;;;21.85;27.73;99631.09;6382297;27;20047;-72
2023/04/21 13:48:41;;;;;;;5.00;1.77;;;;;;;20.94;27.50;99627.25;6400568;27;20176;-72
2023/04/21 13:51:46;;;;;;;4.20;1.63;;;;;;;20.91;28.31;99631.03;6400849;27;20268;-72
2023/04/21 13:54:47;;;;;;;2.47;1.65;;;;;;;20.79;28.36;99623.63;6400561;27;20122;-72
2023/04/21 13:57:48;;;;;;;3.30;1.83;;;;;;;21.08;27.98;99625.66;6400000;27;20046;-72
2023/04/21 14:00:49;;;;;;;2.03;1.80;;;;;;;20.97;27.59;99618.09;6381850;27;20485;-72
2023/04/21 14:03:51;;;;;;;2.30;1.83;;;;;;;20.60;27.00;99623.00;6400066;27;20058;-72
2023/04/21 14:06:52;;;;;;;2.78;2.08;;;;;;;20.70;26.81;99607.75;6400537;27;20057;-72
2023/04/21 14:09:53;;;;;;;5.50;2.13;;;;;;;21.09;27.74;99612.25;6381720;27;20051;-72
2023/04/21 14:12:56;;;;;;;3.15;1.90;;;;;;;20.57;27.44;99607.41;6381624;27;20058;-72
2023/04/21 14:15:57;;;;;;;2.75;1.98;;;;;;;20.80;27.94;99604.91;6399576;27;20409;-72
2023/04/21 14:18:58;;;;;;;7.90;1.98;;;;;;;20.75;27.70;99599.25;6399429;27;20050;-72
2023/04/21 14:22:01;;;;;;;3.07;1.90;;;;;;;20.65;28.54;99601.28;6381141;27;20485;-72
2023/04/21 14:25:02;;;;;;;2.45;1.77;;;;;;;20.33;28.65;99601.16;6380792;27;20039;-73